Scroll down
FLIGHT INFORMATION
Southern Air

SOO9S2201

At Arrival Gate

LEMD
 EGKK
DATE: 2020-10-22
GATE:  -
GATE DEPARTURE: 09:08
TAKEOFF: 09:19
DATE: 2020-10-22
GATE: 18
LANDING: 11:02
GATE ARRIVAL: 11:08
FLIGHT DATA
Speed: 
464 kts
Altitude: 
37,011 ft
Stage Length: 
656.1 nm
Block Time: 
2 hrs
Flight Time: 
1.7 hrs
Fuel Used: 
9,208 lb
Cleared Route: LEMD SIE EDIGO DGO BLV MAPAX NENEM PEXOD DESAB TEPRA NORMI MOKOR TERPO GODAN REN UPALO REVTU ODREP GOKTU VASUX EGKK
TRACK DATA
50,000 ft 1,000 kts
AIRCRAFT INFO AND CUMULATIVE STATS
Aircraft Type: 
B738BCF
Registration: 
SELCAL: 
MSN/LN: 
32884 / 1181
Operator: 
Total Flights: 
7
Total Block Time: 
26 hrs
Total Flight Time: 
25.6 hrs
Total Fuel Time: 
122,027 lb
DATALINK LOG | Newest first | Current as of: 2020-11-29 00:59:17
LABEL SEQUENCE CONTENT Dn/Up
QD103211:08 11.8▼ Dn
QC042611:02▼ Dn
UM233954DESCEND TO 230▲ Up
UM152964AT 39 PAST THE HOUR EXPECT DESCENT TO 230▲ Up
DM67I2954WHEN CAN WE EXPECT DESCENT TO FL 230▼ Dn
2U2404EGKK 220050Z 21009KT 9999 FEW020 SCT030 13/11 Q1005▲ Up
2S2651EGKK▼ Dn
5U4414EGKK 220443Z 22008KT 7000 SHRA) FEW030 13/11 Q1005▲ Up
5S4712EGKK▼ Dn
GA4621CARGO STAND 18▲ Up
GR4611EGKK 11:11 MAAS YP/UM WCHR/S/C HI-VAL YES DIPL/VIP NO▼ Dn
QB214809:19▼ Dn
QA103809:08 21▼ Dn
A30442CLEARED TO EGKK VIA SIE1S SIE UN858 DGO UN867 TERPO UP87 REVTU UP88 VASUX VASU1G. SQUAWK 3726.▲ Up
B30432LEMD EGKK 9S2201 A ▼ Dn
Q00331[LINK ACK]▲ Up
Q00331[LINK TEST]▼ Dn


AIRCRAFT HISTORY
FLIGHT DATE FLIGHT NO. ORIGIN DESTINATION CLEARED ROUTE BLOCK TIME FLIGHT TIME FUEL USED PILOT
2020-10-22SOO9S2201LEMD EGKK LEMD SIE EDIGO DGO BLV MAPAX NENEM PEXOD DESAB TEPRA NORMI MOKOR TERPO GODAN REN UPALO REVTU ODREP GOKTU VASUX EGKK2 hrs1.7 hrs9,208 lbRoberto Stopnicki
2020-10-19SOO2201LXGB LEMD LXGB PIMOS MGA BLN MORAL LEMD1.7 hrs1.4 hrs10,465 lbRoberto Stopnicki
2020-09-11SOO2201GOOY LXGB GOOY 2410N BULIS DIVUX TOPMA MAK TNG LXGB3.7 hrs3.6 hrs24,722 lbRoberto Stopnicki
2020-09-08SOO2201SBRF GOOY SBRF MOVLA AMBET VURBI MOXIP BUGAT REGIS ARUNU BUTAP KODOS TAROT INIRO BOMSA DS GATRO RW014.6 hrs4.4 hrs30,200 lbRoberto Stopnicki
2020-09-06SOO2201SAEZ SBRF SAEZ DORVO PABOT LOMID ANRUP MLO OGRUN DEVOT ABELA OPROR NELOX ITBEB TIMVI UTMUD EGBIP UGREV DOKPU EKUBI EGDED ANDEB EVPIB DOKRO FEITO AKNUB VUDAV BITAK NISBO KOVGO MIA VUPIP SEGLI MOLSU UKENU DOGSU SASBU OPLOX SATBU DAGEL XUVUD SGR BIDEV NAXOV IRUMI ESLIB MEDIT RUBEN SBRF4.8 hrs4.6 hrs26,676 lbRoberto Stopnicki
2020-09-02SOO2201SEQM SAEZ SEQM VURIS PAV VUKOK PUL URC ILMOX JUL ARSUN UBSAS USTOT NAXET JUJ ASODO VADUN GAVEX ESPER DADMI ERE ROMUR ISOPO SNT SAEZ5.4 hrs5.1 hrs32,535 lbRoberto Stopnicki
2020-08-09SOO2311KIAH SEQM KIAH TTAPS BOTLL FLYZA PPALE VUH KELPP KEHLI SUVUM LEVAT RORLA ITLOM IGTOB MUXOG AXEVU VIGTU VOBED CZM ITAKU SIGMA AMESI TEKUG SPP MORLI TBG MILAT TOKUT TCO ENSOL NEGAL QIT SEQM5.1 hrs4.8 hrs27,643 lbMichael Roth